createdAt,value
2022-08-26T00:02:07.318Z,41.10
2022-08-26T00:04:35.635Z,40.82
2022-08-26T00:07:03.729Z,40.84
2022-08-26T00:09:38.947Z,40.87
2022-08-26T00:12:09.445Z,40.97
2022-08-26T00:14:42.402Z,40.75
2022-08-26T00:17:10.953Z,40.50
2022-08-26T00:19:39.312Z,40.95
2022-08-26T00:22:08.382Z,41.32
2022-08-26T00:24:36.477Z,41.38
2022-08-26T00:27:04.273Z,41.57
2022-08-26T00:29:35.603Z,41.45
2022-08-26T00:32:07.417Z,41.56
2022-08-26T00:34:36.375Z,41.37
2022-08-26T00:37:04.944Z,41.61
2022-08-26T00:39:38.030Z,41.18
2022-08-26T00:42:06.434Z,41.56
2022-08-26T00:44:34.346Z,41.66
2022-08-26T00:47:06.504Z,41.86
2022-08-26T00:49:43.084Z,41.67
2022-08-26T00:52:16.530Z,42.01
2022-08-26T00:54:50.723Z,41.97
2022-08-26T00:57:20.975Z,42.16
2022-08-26T00:59:52.649Z,42.17
2022-08-26T01:02:21.141Z,42.03
2022-08-26T01:04:55.507Z,42.62
2022-08-26T01:07:26.323Z,42.20
2022-08-26T01:09:56.017Z,42.21
2022-08-26T01:12:25.366Z,42.91
2022-08-26T01:14:53.891Z,42.59
2022-08-26T01:17:21.907Z,43.08
2022-08-26T01:19:58.252Z,43.33
2022-08-26T01:22:31.647Z,44.38
2022-08-26T01:25:03.717Z,43.60
2022-08-26T01:27:33.655Z,43.14
2022-08-26T01:30:03.133Z,43.26
2022-08-26T01:32:34.157Z,42.63
2022-08-26T01:35:03.353Z,42.48
2022-08-26T01:37:36.937Z,42.59
2022-08-26T01:40:14.164Z,42.62
2022-08-26T01:42:46.848Z,42.91
2022-08-26T01:45:19.827Z,42.88
2022-08-26T01:47:56.736Z,42.92
2022-08-26T01:50:30.707Z,43.35
2022-08-26T01:53:02.321Z,43.58
2022-08-26T01:55:34.075Z,43.57
2022-08-26T01:58:05.861Z,43.56
2022-08-26T02:00:34.802Z,43.31
2022-08-26T02:03:18.004Z,43.36
2022-08-26T02:05:52.962Z,43.28
2022-08-26T02:08:25.330Z,43.76
2022-08-26T02:10:56.192Z,43.90
2022-08-26T02:13:27.727Z,43.52
2022-08-26T02:15:56.585Z,43.68
2022-08-26T02:18:26.168Z,43.80
2022-08-26T02:20:55.721Z,43.71
2022-08-26T02:23:24.453Z,44.03
2022-08-26T02:26:01.244Z,43.97
2022-08-26T02:28:33.529Z,44.30
2022-08-26T02:31:02.574Z,44.45
2022-08-26T02:33:31.190Z,44.24
2022-08-26T02:35:59.355Z,44.77
2022-08-26T02:38:27.801Z,44.91
2022-08-26T02:40:57.078Z,43.97
2022-08-26T02:43:31.740Z,44.16
2022-08-26T02:46:02.386Z,44.47
2022-08-26T02:48:31.817Z,44.57
2022-08-26T02:51:01.868Z,45.03
2022-08-26T02:53:32.025Z,44.99
2022-08-26T02:56:05.409Z,44.64
2022-08-26T02:58:33.969Z,44.43
2022-08-26T03:01:02.138Z,44.42
2022-08-26T03:03:33.655Z,44.32
2022-08-26T03:06:01.603Z,44.59
2022-08-26T03:08:29.495Z,44.96
2022-08-26T03:10:57.555Z,44.31
2022-08-26T03:13:26.958Z,44.40
2022-08-26T03:15:55.253Z,44.80
2022-08-26T03:18:24.283Z,44.99
2022-08-26T03:20:52.329Z,44.80
2022-08-26T03:23:20.220Z,45.55
2022-08-26T03:25:51.322Z,45.20
2022-08-26T03:28:19.785Z,45.56
2022-08-26T03:30:49.305Z,45.68
2022-08-26T03:33:17.932Z,45.65
2022-08-26T03:35:47.944Z,45.25
2022-08-26T03:38:20.192Z,45.01
2022-08-26T03:40:48.445Z,45.74
2022-08-26T03:43:19.149Z,44.92
2022-08-26T03:45:47.126Z,44.71
2022-08-26T03:48:16.533Z,45.71
2022-08-26T03:50:44.646Z,45.78
2022-08-26T03:53:13.217Z,45.20
2022-08-26T03:55:41.448Z,45.44
2022-08-26T03:58:09.418Z,45.17
2022-08-26T04:00:37.328Z,45.86
2022-08-26T04:03:05.422Z,46.00
2022-08-26T04:05:39.469Z,45.20
2022-08-26T04:08:08.108Z,46.26
2022-08-26T04:10:39.049Z,45.90
2022-08-26T04:13:07.225Z,45.96
2022-08-26T04:15:35.460Z,45.73
2022-08-26T04:18:03.540Z,46.13
2022-08-26T04:20:31.500Z,46.86
2022-08-26T04:23:00.833Z,46.53
2022-08-26T04:25:29.128Z,46.80
2022-08-26T04:27:57.417Z,46.92
2022-08-26T04:30:25.339Z,45.74
2022-08-26T04:32:53.603Z,46.76
2022-08-26T04:35:25.638Z,45.78
2022-08-26T04:37:54.505Z,46.59
2022-08-26T04:40:24.211Z,45.31
2022-08-26T04:42:53.927Z,46.05
2022-08-26T04:45:22.861Z,46.29
2022-08-26T04:47:54.768Z,45.78
2022-08-26T04:50:23.839Z,46.33
2022-08-26T04:52:53.081Z,46.23
2022-08-26T04:55:21.160Z,45.48
2022-08-26T04:58:10.282Z,45.77
2022-08-26T05:00:39.187Z,45.52
2022-08-26T05:03:10.293Z,45.31
2022-08-26T05:05:40.463Z,45.58
2022-08-26T05:08:08.623Z,45.69
2022-08-26T05:10:41.192Z,45.46
2022-08-26T05:13:15.190Z,46.31
2022-08-26T05:15:45.251Z,45.98
2022-08-26T05:18:16.625Z,45.68
2022-08-26T05:20:47.130Z,46.19
2022-08-26T05:23:15.757Z,46.13
2022-08-26T05:25:46.233Z,46.45
2022-08-26T05:28:17.306Z,45.83
2022-08-26T05:30:45.476Z,46.11
2022-08-26T05:33:14.391Z,45.36
2022-08-26T05:35:42.728Z,45.94
2022-08-26T05:38:13.241Z,45.23
2022-08-26T05:40:44.646Z,45.43
2022-08-26T05:43:13.656Z,45.56
2022-08-26T05:45:46.472Z,45.24
2022-08-26T05:48:16.359Z,45.20
2022-08-26T05:50:47.137Z,45.48
2022-08-26T05:53:17.594Z,45.27
2022-08-26T05:55:47.370Z,44.96
2022-08-26T05:58:17.475Z,44.36
2022-08-26T06:00:49.154Z,44.56
2022-08-26T06:03:17.812Z,44.15
2022-08-26T06:05:45.801Z,44.17
2022-08-26T06:08:14.260Z,44.08
2022-08-26T06:10:50.280Z,43.67
2022-08-26T06:13:19.847Z,43.71
2022-08-26T06:15:51.961Z,44.26
2022-08-26T06:18:24.506Z,43.45
2022-08-26T06:20:57.858Z,42.67
2022-08-26T06:23:45.786Z,42.77
2022-08-26T06:26:16.481Z,41.77
2022-08-26T06:28:45.500Z,40.90
2022-08-26T06:31:16.489Z,41.08
2022-08-26T06:33:46.028Z,40.87
2022-08-26T06:36:19.395Z,40.82
2022-08-26T06:38:48.575Z,40.11
2022-08-26T06:41:17.007Z,40.65
2022-08-26T06:43:45.694Z,41.54
2022-08-26T06:46:17.794Z,42.13
2022-08-26T06:48:46.319Z,40.40
2022-08-26T06:51:19.106Z,40.81
2022-08-26T06:53:51.942Z,39.74
2022-08-26T06:56:23.188Z,39.48
2022-08-26T06:58:53.022Z,39.01
2022-08-26T07:01:27.322Z,38.38
2022-08-26T07:03:59.283Z,35.91
2022-08-26T07:06:30.309Z,33.27
2022-08-26T07:09:04.248Z,31.08
2022-08-26T07:11:32.713Z,28.66
2022-08-26T07:14:00.846Z,25.93
2022-08-26T07:16:31.297Z,25.82
2022-08-26T07:19:03.419Z,23.28
2022-08-26T07:21:40.312Z,21.45
2022-08-26T07:24:08.863Z,21.06
2022-08-26T07:26:43.189Z,20.78
2022-08-26T07:29:12.529Z,21.47
2022-08-26T07:31:42.975Z,24.58
2022-08-26T07:34:11.819Z,25.38
2022-08-26T07:36:39.794Z,24.63
2022-08-26T07:39:08.619Z,21.96
2022-08-26T07:41:37.065Z,20.02
2022-08-26T07:44:06.376Z,19.03
2022-08-26T07:46:36.438Z,19.12
2022-08-26T07:49:06.036Z,17.62
2022-08-26T07:51:34.885Z,16.21
2022-08-26T07:54:03.023Z,16.08
2022-08-26T07:56:30.955Z,14.80
2022-08-26T07:58:59.349Z,15.64
2022-08-26T08:01:29.848Z,13.83
2022-08-26T08:04:00.494Z,13.41
2022-08-26T08:06:31.991Z,14.19
2022-08-26T08:09:00.922Z,13.42
2022-08-26T08:11:31.143Z,15.28
2022-08-26T08:14:01.007Z,15.12
2022-08-26T08:16:32.274Z,14.05
2022-08-26T08:19:02.744Z,14.96
2022-08-26T08:21:33.298Z,14.56
2022-08-26T08:24:01.515Z,12.92
2022-08-26T08:26:29.559Z,11.29
2022-08-26T08:28:58.887Z,11.29
2022-08-26T08:34:18.383Z,10.53
2022-08-26T08:36:47.800Z,9.89
2022-08-26T08:39:15.740Z,10.72
2022-08-26T08:41:55.427Z,11.53
2022-08-26T08:47:02.980Z,12.62
2022-08-26T08:49:32.043Z,13.86
2022-08-26T08:52:07.787Z,13.19
2022-08-26T08:54:36.013Z,16.15
2022-08-26T08:57:12.315Z,13.42
2022-08-26T08:59:46.217Z,19.21
2022-08-26T09:02:20.903Z,18.33
2022-08-26T09:05:04.846Z,13.20
2022-08-26T09:07:37.685Z,14.57
2022-08-26T09:10:18.707Z,12.62
2022-08-26T09:12:48.757Z,14.89
2022-08-26T09:15:21.558Z,16.43
2022-08-26T09:18:00.573Z,18.04
2022-08-26T09:20:41.144Z,19.69
2022-08-26T09:23:12.537Z,21.19
2022-08-26T09:25:48.243Z,15.72
2022-08-26T09:28:18.930Z,11.90
2022-08-26T09:30:49.196Z,15.71
2022-08-26T09:33:20.374Z,14.35
2022-08-26T09:35:48.755Z,16.00
2022-08-26T09:38:28.042Z,17.75
2022-08-26T09:40:58.071Z,16.66
2022-08-26T09:43:28.727Z,18.69
2022-08-26T09:46:13.588Z,17.82
2022-08-26T09:48:42.892Z,19.26
2022-08-26T09:51:29.389Z,20.40
2022-08-26T09:54:01.894Z,19.23
2022-08-26T09:56:32.516Z,18.88
2022-08-26T09:59:01.732Z,18.70
2022-08-26T10:01:34.036Z,18.78
2022-08-26T10:04:08.306Z,19.15
2022-08-26T10:06:40.215Z,18.54
2022-08-26T10:09:14.399Z,18.72
2022-08-26T10:11:47.658Z,19.89
2022-08-26T10:14:21.389Z,20.52
2022-08-26T10:16:53.773Z,21.69
2022-08-26T10:19:29.209Z,21.89
2022-08-26T10:22:21.995Z,22.91
2022-08-26T10:24:55.492Z,22.50
2022-08-26T10:27:28.901Z,23.07
2022-08-26T10:30:03.931Z,23.53
2022-08-26T10:32:41.275Z,22.97
2022-08-26T10:35:13.452Z,22.17
2022-08-26T10:37:46.724Z,23.27
2022-08-26T10:40:24.882Z,23.91
2022-08-26T10:42:57.171Z,25.17
2022-08-26T10:45:28.649Z,25.30
2022-08-26T10:48:04.171Z,25.98
2022-08-26T10:50:36.004Z,25.25
2022-08-26T10:53:14.150Z,26.52
2022-08-26T10:55:54.851Z,26.36
2022-08-26T10:58:37.730Z,26.66
2022-08-26T11:01:32.498Z,28.25
2022-08-26T11:04:08.946Z,26.83
2022-08-26T11:06:37.241Z,26.65
2022-08-26T11:09:07.380Z,26.97
2022-08-26T11:11:51.894Z,26.67
2022-08-26T11:14:46.163Z,26.92
2022-08-26T11:17:58.506Z,26.36
2022-08-26T11:20:39.138Z,27.30
2022-08-26T11:23:40.306Z,27.03
2022-08-26T11:26:30.012Z,25.68
2022-08-26T11:29:13.235Z,26.27
2022-08-26T11:31:57.036Z,27.53
2022-08-26T11:34:56.403Z,27.44
2022-08-26T11:37:33.084Z,27.20
2022-08-26T11:40:03.388Z,26.83
2022-08-26T11:42:38.057Z,26.22
2022-08-26T11:45:19.512Z,27.68
2022-08-26T11:47:49.472Z,26.80
2022-08-26T11:50:21.703Z,27.22
2022-08-26T11:53:01.905Z,25.64
2022-08-26T11:55:31.737Z,25.18
2022-08-26T11:58:02.297Z,25.45
2022-08-26T12:00:40.283Z,25.23
2022-08-26T12:03:19.720Z,26.31
2022-08-26T12:05:50.337Z,26.79
2022-08-26T12:08:21.977Z,26.79
2022-08-26T12:10:50.362Z,27.00
2022-08-26T12:13:23.167Z,27.49
2022-08-26T12:15:57.966Z,26.09
2022-08-26T12:18:29.487Z,27.50
2022-08-26T12:21:00.791Z,26.57
2022-08-26T12:23:44.126Z,25.71
2022-08-26T12:26:19.616Z,24.57
2022-08-26T12:28:51.644Z,23.80
2022-08-26T12:31:29.511Z,23.93
2022-08-26T12:34:00.276Z,23.43
2022-08-26T12:36:36.268Z,24.14
2022-08-26T12:39:10.887Z,23.55
2022-08-26T12:41:46.517Z,23.63
2022-08-26T12:44:38.823Z,22.88
2022-08-26T12:47:11.776Z,22.91
2022-08-26T12:49:42.503Z,23.99
2022-08-26T12:52:30.060Z,22.41
2022-08-26T12:55:01.170Z,22.11
2022-08-26T12:57:32.618Z,22.44
2022-08-26T13:00:39.556Z,21.80
2022-08-26T13:03:31.119Z,22.22
2022-08-26T13:06:16.031Z,21.70
2022-08-26T13:08:45.885Z,20.98
2022-08-26T13:11:20.160Z,20.80
2022-08-26T13:13:50.681Z,21.10
2022-08-26T13:16:19.962Z,21.94
2022-08-26T13:18:51.163Z,22.08
2022-08-26T13:21:21.750Z,23.70
2022-08-26T13:23:50.657Z,24.27
2022-08-26T13:26:19.049Z,23.87
2022-08-26T13:29:01.123Z,25.71
2022-08-26T13:31:32.655Z,24.36
2022-08-26T13:34:03.817Z,24.92
2022-08-26T13:36:31.791Z,24.40
2022-08-26T13:38:59.936Z,24.66
2022-08-26T13:41:29.449Z,24.08
2022-08-26T13:43:58.237Z,24.53
2022-08-26T13:46:28.476Z,22.94
2022-08-26T13:48:56.970Z,22.55
2022-08-26T13:51:27.403Z,23.17
2022-08-26T13:53:56.091Z,22.12
2022-08-26T13:56:24.744Z,22.03
2022-08-26T13:58:52.639Z,22.61
2022-08-26T14:01:20.807Z,21.59
2022-08-26T14:03:48.991Z,21.25
2022-08-26T14:06:17.109Z,21.99
2022-08-26T14:08:47.030Z,21.08
2022-08-26T14:11:15.292Z,20.78
2022-08-26T14:13:43.213Z,20.97
2022-08-26T14:16:15.650Z,21.12
2022-08-26T14:18:48.560Z,21.13
2022-08-26T14:21:18.731Z,21.79
2022-08-26T14:23:48.235Z,22.09
2022-08-26T14:26:19.003Z,22.11
2022-08-26T14:28:57.850Z,22.70
2022-08-26T14:31:27.101Z,22.30
2022-08-26T14:33:56.263Z,22.70
2022-08-26T14:36:32.084Z,22.43
2022-08-26T14:39:05.383Z,23.39
2022-08-26T14:41:34.509Z,23.73
2022-08-26T14:44:05.309Z,23.89
2022-08-26T14:46:39.118Z,24.20
2022-08-26T14:49:10.378Z,24.15
2022-08-26T14:51:38.768Z,24.41
2022-08-26T14:54:14.212Z,24.07
2022-08-26T14:56:46.014Z,24.93
2022-08-26T14:59:15.251Z,24.00
2022-08-26T15:01:43.197Z,24.78
2022-08-26T15:04:11.180Z,24.62
2022-08-26T15:06:39.474Z,24.32
2022-08-26T15:09:09.169Z,25.74
2022-08-26T15:11:37.445Z,25.90
2022-08-26T15:14:05.820Z,25.55
2022-08-26T15:16:34.922Z,25.51
2022-08-26T15:19:04.882Z,25.79
2022-08-26T15:21:32.845Z,25.22
2022-08-26T15:24:01.464Z,26.62
2022-08-26T15:26:32.079Z,26.80
2022-08-26T15:29:04.369Z,25.70
2022-08-26T15:31:34.139Z,24.64
2022-08-26T15:34:06.083Z,25.79
2022-08-26T15:36:34.494Z,25.54
2022-08-26T15:39:02.561Z,25.79
2022-08-26T15:41:31.929Z,28.72
2022-08-26T15:44:03.912Z,27.71
2022-08-26T15:46:32.583Z,29.08
2022-08-26T15:49:00.612Z,29.77
2022-08-26T15:51:32.079Z,29.91
2022-08-26T15:54:02.638Z,30.22
2022-08-26T15:56:37.725Z,30.50
2022-08-26T15:59:08.264Z,30.76
2022-08-26T16:01:37.257Z,30.85
2022-08-26T16:04:06.901Z,32.18
2022-08-26T16:06:37.693Z,32.35
2022-08-26T16:09:06.882Z,32.18
2022-08-26T16:11:37.676Z,30.95
2022-08-26T16:14:08.393Z,31.15
2022-08-26T16:16:39.462Z,31.37
2022-08-26T16:19:07.881Z,31.45
2022-08-26T16:21:36.514Z,30.95
2022-08-26T16:24:05.075Z,31.31
2022-08-26T16:26:37.330Z,31.09
2022-08-26T16:29:08.824Z,31.12
2022-08-26T16:31:38.513Z,31.70
2022-08-26T16:34:07.141Z,32.07
2022-08-26T16:36:35.539Z,32.87
2022-08-26T16:39:04.095Z,32.57
2022-08-26T16:41:33.207Z,32.66
2022-08-26T16:44:02.700Z,32.61
2022-08-26T16:46:31.369Z,32.99
2022-08-26T16:49:00.289Z,32.39
2022-08-26T16:51:29.611Z,32.63
2022-08-26T16:53:59.170Z,31.97
2022-08-26T16:56:33.947Z,32.89
2022-08-26T16:59:05.209Z,33.25
2022-08-26T17:01:33.562Z,32.19
2022-08-26T17:04:02.299Z,31.97
2022-08-26T17:06:30.520Z,32.32
2022-08-26T17:08:58.651Z,32.45
2022-08-26T17:11:26.577Z,36.33
2022-08-26T17:13:54.781Z,35.25
2022-08-26T17:16:26.847Z,35.62
2022-08-26T17:18:56.467Z,35.83
2022-08-26T17:21:24.953Z,37.70
2022-08-26T17:23:53.207Z,39.91
2022-08-26T17:26:21.761Z,40.89
2022-08-26T17:28:50.403Z,42.28
2022-08-26T17:31:18.555Z,42.18
2022-08-26T17:33:53.288Z,46.71
2022-08-26T17:36:28.186Z,44.89
2022-08-26T17:38:57.502Z,43.76
2022-08-26T17:41:26.027Z,45.04
2022-08-26T17:43:57.383Z,45.44
2022-08-26T17:46:25.800Z,47.00
2022-08-26T17:48:55.707Z,47.95
2022-08-26T17:51:23.954Z,47.94
2022-08-26T17:53:52.663Z,49.08
2022-08-26T17:56:24.494Z,48.71
2022-08-26T17:58:53.066Z,48.28
2022-08-26T18:01:22.098Z,49.57
2022-08-26T18:03:50.474Z,48.47
2022-08-26T18:06:21.241Z,50.22
2022-08-26T18:08:49.462Z,50.29
2022-08-26T18:11:19.796Z,51.55
2022-08-26T18:13:47.896Z,51.44
2022-08-26T18:16:17.199Z,51.33
2022-08-26T18:18:45.516Z,52.10
2022-08-26T18:21:15.683Z,51.03
2022-08-26T18:23:45.705Z,51.57
2022-08-26T18:26:17.704Z,50.81
2022-08-26T18:28:45.803Z,51.32
2022-08-26T18:31:13.645Z,53.56
2022-08-26T18:33:43.091Z,55.75
2022-08-26T18:36:17.011Z,54.48
2022-08-26T18:38:46.802Z,50.92
2022-08-26T18:41:14.951Z,53.56
2022-08-26T18:43:43.354Z,55.12
2022-08-26T18:46:12.137Z,52.32
2022-08-26T18:48:41.947Z,53.01
2022-08-26T18:51:16.209Z,52.85
2022-08-26T18:53:44.300Z,54.04
2022-08-26T18:56:16.660Z,52.45
2022-08-26T18:58:46.510Z,53.13
2022-08-26T19:01:15.594Z,52.70
2022-08-26T19:03:43.745Z,53.78
2022-08-26T19:06:15.632Z,54.60
2022-08-26T19:08:44.571Z,53.93
2022-08-26T19:11:15.004Z,52.53
2022-08-26T19:13:43.232Z,51.99
2022-08-26T19:16:15.905Z,52.24
2022-08-26T19:18:44.288Z,53.83
2022-08-26T19:21:12.359Z,56.42
2022-08-26T19:23:40.895Z,56.46
2022-08-26T19:26:09.969Z,55.18
2022-08-26T19:28:40.904Z,54.01
2022-08-26T19:31:10.500Z,52.76
2022-08-26T19:33:39.683Z,52.77
2022-08-26T19:36:11.462Z,53.50
2022-08-26T19:38:42.963Z,54.70
2022-08-26T19:41:12.552Z,56.01
2022-08-26T19:43:41.912Z,54.72
2022-08-26T19:46:12.032Z,52.84
2022-08-26T19:48:40.423Z,54.86
2022-08-26T19:51:08.525Z,54.01
2022-08-26T19:53:36.569Z,53.65
2022-08-26T19:56:04.773Z,53.90
2022-08-26T19:58:32.742Z,55.25
2022-08-26T20:01:02.121Z,55.20
2022-08-26T20:03:30.504Z,55.36
2022-08-26T20:05:58.497Z,54.97
2022-08-26T20:08:26.714Z,54.79
2022-08-26T20:10:55.864Z,54.40
2022-08-26T20:13:24.030Z,55.05
2022-08-26T20:15:51.895Z,53.95
2022-08-26T20:18:38.582Z,54.11
2022-08-26T20:21:35.901Z,55.68
2022-08-26T20:24:07.368Z,54.51
2022-08-26T20:26:37.490Z,55.41
2022-08-26T20:29:06.069Z,57.02
2022-08-26T20:31:35.399Z,56.31
2022-08-26T20:34:05.615Z,54.91
2022-08-26T20:36:34.381Z,55.98
2022-08-26T20:39:02.711Z,55.53
2022-08-26T20:41:31.430Z,55.26
2022-08-26T20:43:59.548Z,56.02
2022-08-26T20:46:27.906Z,55.51
2022-08-26T20:48:56.094Z,54.37
2022-08-26T20:51:27.543Z,54.83
2022-08-26T20:53:56.024Z,54.36
2022-08-26T20:56:25.080Z,55.00
2022-08-26T20:58:54.440Z,54.30
2022-08-26T21:01:28.234Z,54.15
2022-08-26T21:03:57.586Z,54.18
2022-08-26T21:06:26.140Z,54.63
2022-08-26T21:08:56.835Z,54.78
2022-08-26T21:11:25.787Z,53.88
2022-08-26T21:14:16.650Z,54.05
2022-08-26T21:16:43.004Z,54.12
2022-08-26T21:19:12.958Z,53.92
2022-08-26T21:21:41.966Z,53.67
2022-08-26T21:24:12.238Z,53.56
2022-08-26T21:26:40.665Z,53.53
2022-08-26T21:29:09.894Z,53.63
2022-08-26T21:31:44.867Z,54.05
2022-08-26T21:34:14.206Z,54.26
2022-08-26T21:36:41.880Z,53.56
2022-08-26T21:39:12.165Z,53.62
2022-08-26T21:41:41.466Z,54.78
2022-08-26T21:44:10.731Z,53.90
2022-08-26T21:46:39.248Z,54.66
2022-08-26T21:49:10.512Z,53.53
2022-08-26T21:51:41.210Z,54.41
2022-08-26T21:54:11.238Z,54.30
2022-08-26T21:56:44.707Z,53.75
2022-08-26T21:59:13.899Z,54.17
2022-08-26T22:01:41.824Z,53.65
2022-08-26T22:04:11.111Z,54.01
2022-08-26T22:06:43.581Z,54.49
2022-08-26T22:09:12.309Z,53.56
2022-08-26T22:11:42.715Z,53.45
2022-08-26T22:14:11.920Z,53.32
2022-08-26T22:16:39.939Z,54.29
2022-08-26T22:19:08.315Z,54.62
2022-08-26T22:21:41.772Z,53.26
2022-08-26T22:24:12.353Z,54.83
2022-08-26T22:26:41.830Z,55.30
2022-08-26T22:29:09.737Z,55.78
2022-08-26T22:31:38.793Z,54.75
2022-08-26T22:34:09.213Z,54.97
2022-08-26T22:36:43.657Z,54.97
2022-08-26T22:39:13.415Z,54.92
2022-08-26T22:41:43.408Z,54.03
2022-08-26T22:44:12.814Z,53.96
2022-08-26T22:46:41.940Z,54.09
2022-08-26T22:49:11.364Z,53.91
2022-08-26T22:51:39.416Z,53.66
2022-08-26T22:54:08.003Z,53.21
2022-08-26T22:56:36.916Z,53.67
2022-08-26T22:59:07.998Z,53.76
2022-08-26T23:01:37.797Z,55.02
2022-08-26T23:04:07.792Z,54.18
2022-08-26T23:06:36.779Z,54.77
2022-08-26T23:09:05.513Z,53.93
2022-08-26T23:11:33.743Z,54.41
2022-08-26T23:14:06.282Z,54.54
2022-08-26T23:16:39.216Z,51.86
2022-08-26T23:19:08.767Z,53.98
2022-08-26T23:21:38.020Z,51.77
2022-08-26T23:24:06.535Z,51.57
2022-08-26T23:26:35.547Z,51.01
2022-08-26T23:29:03.890Z,50.23
2022-08-26T23:31:32.854Z,52.43
2022-08-26T23:34:20.059Z,51.73
2022-08-26T23:36:48.452Z,53.03
2022-08-26T23:39:17.041Z,51.90
2022-08-26T23:41:45.113Z,54.26
2022-08-26T23:44:13.832Z,52.32
2022-08-26T23:46:41.981Z,51.23
2022-08-26T23:49:11.280Z,54.66
2022-08-26T23:51:57.533Z,56.12
2022-08-26T23:54:25.578Z,52.84
2022-08-26T23:56:53.467Z,51.46
2022-08-26T23:59:22.023Z,52.40
